Terminal Aerodrome Forecast
Issued by NWS

Home | Current Version | Previous Version | Text Only | Print | Product List | Glossary On
Versions: 1 2 3 4 5 6 7 8 9 10 11 12 13 14 15 16 17
000
FTUS43 KGLD 191134
TAFMCK
TAF
KMCK 191134Z 1912/2012 23004KT 1/4SM FG VV002
     FM191600 20004KT 1/2SM FZFG OVC003
     FM191700 21004KT 1SM BR OVC003
     FM191800 21004KT 3SM BR OVC003
     FM191900 21004KT P6SM BKN003
     FM192000 18004KT P6SM SCT015
     FM200300 VRB04KT P6SM SCT010=

USA.gov is the U.S. government's official web portal to all federal, state and local government web resources and services.